Latest Coastal Weather Observations for Ceduna

IDS60701

Issued at 3:01 am CST Thursday 24 August 2017 (issued every 10 minutes, with the page automatically refreshed every 10 minutes)

About coastal observations | Map of coastal stations | Coastal observations for SA | Marine services | Other Formats
Station Details ID: 018012 Name: CEDUNA AMO Lat: -32.13 Lon: 133.70 Height: 15.3 m
Data from the previous 72 hours. | See also: Recent months at Ceduna
Date/Time
CST
Temp
°C
Wind Pressure Rain since
9am
mm
Weather Cloud Vis
km
Sea
Height
m
Swell
Dir  Spd
kts
Gust
kts
hPa Trend Height
m
Period
s
Dir
24/03:00am 4.2 ESE 8 9 1028.0 R 0.0 - - 25 - - - -
24/02:30am 4.3 ESE 6 7 1028.1 - 0.0 - - 10 - - - -
24/02:00am 4.2 ESE 6 6 1028.1 - 0.0 - - 10 - - - -
24/01:30am 4.7 ESE 7 8 1028.2 - 0.0 - - 10 - - - -
24/01:00am 5.2 ESE 7 7 1028.2 - 0.0 - - 10 - - - -
24/12:30am 6.3 ESE 6 7 1028.5 - 0.0 - Partly cloudy 10 - - - -
24/12:00am 6.7 ESE 6 7 1028.3 R 0.0 - Partly cloudy 10 - - - -
 
Date/Time
CST
Temp
°C
Wind Pressure Rain since
9am
mm
Weather Cloud Vis
km
Sea
Height
m
Swell
Dir  Spd
kts
Gust
kts
hPa Trend Height
m
Period
s
Dir
23/11:30pm 6.2 SE 5 6 1028.2 - 0.0 - - 10 - - - -
23/11:00pm 5.9 ESE 7 7 1028.1 - 0.0 - - 10 - - - -
23/10:30pm 8.0 SE 4 4 1028.1 - 0.0 - - 10 - - - -
23/10:00pm 9.7 SE 5 6 1028.0 - 0.0 - - 10 - - - -
23/09:30pm 10.6 SSE 8 9 1027.7 - 0.0 - - 10 - - - -
23/09:00pm 10.4 SSE 7 7 1027.7 R 0.0 - Mostly clear 10 - - - -
23/08:30pm 11.6 SSE 7 8 1027.5 - 0.0 - - 10 - - - -
23/08:00pm 12.1 SSE 8 10 1027.0 - 0.0 - - 10 - - - -
23/07:30pm 12.6 SSE 7 9 1026.7 - 0.0 - - 10 - - - -
23/07:00pm 13.4 SSE 9 13 1026.3 - 0.0 - - 10 - - - -
23/06:30pm 13.8 S 9 12 1025.8 - 0.0 - - 10 - - - -
23/06:00pm 14.6 S 8 10 1025.5 R 0.0 - - 10 - - - -
23/05:30pm 15.5 S 13 16 1025.0 - 0.0 - - 10 - - - -
23/05:00pm 16.1 S 12 16 1024.8 - 0.0 - - 10 - - - -
23/04:30pm 16.9 S 13 17 1024.6 - 0.0 - - 10 - - - -
23/04:00pm 17.4 SSW 13 18 1024.5 - 0.0 - - 10 - - - -
23/03:30pm 17.0 SSW 14 17 1024.4 - 0.0 - - 10 - - - -
23/03:00pm 17.2 SSW 14 18 1024.2 R 0.0 - - 10 - - - -
23/02:30pm 17.7 SSW 15 19 1024.1 - 0.0 - - 10 - - - -
23/02:00pm 17.3 SSW 13 15 1024.1 - 0.0 - - 10 - - - -
23/01:30pm 17.3 SW 13 17 1024.2 - 0.0 - - 10 - - - -
23/01:00pm 17.1 SW 10 14 1024.5 - 0.0 - - 10 - - - -
23/12:30pm 16.7 SW 10 16 1024.6 - 0.0 - - 10 - - - -
23/12:00pm 16.9 SW 8 11 1024.8 R 0.0 - - 10 - - - -
23/11:30am 16.9 SW 8 10 1024.9 - 0.0 - - 10 - - - -
23/11:00am 17.1 WSW 7 11 1024.9 - 0.0 - - 10 - - - -
23/10:30am 18.0 W 5 7 1024.7 - 0.0 - - 10 - - - -
23/10:00am 17.6 WNW 4 6 1024.5 - 0.0 - - 10 - - - -
23/09:30am 16.0 NNW 5 7 1024.3 - 0.0 - - 10 - - - -
23/09:00am 13.0 N 5 7 1023.9 S 0.0 - - 10 - - - -
23/08:30am 9.1 N 4 6 1023.9 - 0.0 - - 10 - - - -
23/08:00am 6.7 N 4 5 1023.5 - 0.0 - - 10 - - - -
23/07:30am 3.9 N 3 4 1023.3 - 0.0 - - 10 - - - -
23/07:00am 2.7 NNE 3 4 1023.0 - 0.0 - - 10 - - - -
23/06:30am 3.7 NNE 4 5 1022.7 - 0.0 - - 10 - - - -
23/06:00am 3.7 NE 3 4 1022.6 R 0.0 - - 10 - - - -
23/05:30am 3.8 ENE 3 4 1022.4 - 0.0 - - 10 - - - -
23/05:00am 2.9 ENE 5 5 1022.3 - 0.0 - - 10 - - - -
23/04:30am 5.3 NE 4 5 1022.3 - 0.0 - - 10 - - - -
23/04:00am 5.5 NE 5 5 1022.2 - 0.0 - - 10 - - - -
23/03:30am 6.3 NNE 6 7 1022.3 - 0.0 - - 10 - - - -
23/03:00am 6.3 NNE 6 7 1022.3 R 0.0 - - 10 - - - -
23/02:30am 5.1 NE 5 6 1022.5 - 0.0 - - 10 - - - -
23/02:00am 5.2 NNE 3 4 1022.5 - 0.0 - - 10 - - - -
23/01:30am 5.0 NNE 3 5 1022.5 - 0.0 - - 10 - - - -
23/01:00am 5.0 NNE 5 6 1022.7 - 0.0 - - 10 - - - -
23/12:30am 5.6 NE 4 5 1022.6 - 0.0 - - 10 - - - -
23/12:00am 5.6 ENE 3 4 1022.6 F 0.0 - - 10 - - - -
 
Date/Time
CST
Temp
°C
Wind Pressure Rain since
9am
mm
Weather Cloud Vis
km
Sea
Height
m
Swell
Dir  Spd
kts
Gust
kts
hPa Trend Height
m
Period
s
Dir
22/11:30pm 6.2 ENE 4 6 1022.6 - 0.0 - - 10 - - - -
22/11:00pm 6.3 ENE 5 6 1022.7 - 0.0 - - 10 - - - -
22/10:30pm 7.1 ESE 4 5 1022.8 - 0.0 - - 10 - - - -
22/10:00pm 7.5 ENE 5 6 1023.0 - 0.0 - - 10 - - - -
22/09:30pm 6.9 SE 5 6 1023.1 - 0.0 - - 10 - - - -
22/09:00pm 7.1 SE 5 6 1023.0 F 0.0 - - 10 - - - -
22/08:30pm 8.3 SSE 4 5 1022.7 - 0.0 - - 10 - - - -
22/08:00pm 8.0 SE 5 6 1022.7 - 0.0 - - 10 - - - -
22/07:30pm 9.2 SSE 5 6 1022.5 - 0.0 - - 10 - - - -
22/07:00pm 10.2 SSE 5 5 1022.4 - 0.0 - - 10 - - - -
22/06:30pm 11.9 SSE 6 7 1022.1 - 0.0 - - 10 - - - -
22/06:00pm 14.1 S 4 6 1021.9 F 0.0 - - 10 - - - -
22/05:30pm 15.4 SSW 8 9 1021.8 - 0.0 - - 10 - - - -
22/05:00pm 15.8 SSW 8 10 1021.6 - 0.0 - - 10 - - - -
22/04:30pm 16.7 SSW 9 10 1021.5 - 0.0 - - 10 - - - -
22/04:00pm 17.6 SSW 9 12 1021.5 - 0.0 - - 10 - - - -
22/03:30pm 17.7 SW 8 10 1021.6 - 0.0 - - 10 - - - -
22/03:00pm 18.2 SW 7 10 1021.7 R 0.0 - - 10 - - - -
22/02:30pm 17.7 WSW 7 10 1021.8 - 0.0 - - 10 - - - -
22/02:00pm 18.2 WSW 6 9 1021.7 - 0.0 - - 10 - - - -
22/01:30pm 17.9 W 6 10 1022.0 - 0.0 - - 10 - - - -
22/01:00pm 17.9 WNW 7 9 1022.5 - 0.0 - - 10 - - - -
22/12:30pm 17.6 WNW 6 8 1022.8 - 0.0 - - 10 - - - -
22/12:00pm 16.5 WNW 6 10 1023.0 F 0.0 - - 10 - - - -
22/11:30am 16.5 WSW 3 8 1023.3 - 0.0 - - 10 - - - -
22/11:00am 15.8 WNW 5 7 1023.6 - 0.0 - Partly cloudy 10 - - - -
22/10:30am 15.9 WNW 5 8 1024.0 - 0.0 - Partly cloudy 10 - - - -
22/10:00am 14.9 NW 5 8 1024.0 - 0.0 - Partly cloudy 10 - - - -
22/09:30am 14.8 NW 4 6 1024.0 - 0.0 - Cloudy 10 - - - -
22/09:00am 13.9 NNW 3 5 1024.1 S 0.0 - Cloudy 10 - - - -
22/08:30am 12.5 NNE 4 5 1023.5 - 0.0 - Cloudy 10 - - - -
22/08:00am 11.4 NNE 5 5 1023.1 - 0.0 - Cloudy 10 - - - -
22/07:30am 10.5 N 1 5 1023.0 - 0.0 - Cloudy 10 - - - -
22/07:00am 12.2 WSW 3 6 1022.8 - 0.0 - Partly cloudy 10 - - - -
22/06:30am 12.1 W 3 5 1022.8 - 0.0 - Cloudy 10 - - - -
22/06:00am 12.6 WNW 6 8 1022.8 R 0.0 - Cloudy 10 - - - -
22/05:30am 12.7 W 5 7 1022.6 - 0.0 - Cloudy 10 - - - -
22/05:00am 13.0 SW 5 10 1022.1 - 0.0 - Cloudy 10 - - - -
22/04:30am 12.9 SW 7 9 1022.0 - 0.0 - Cloudy 10 - - - -
22/04:00am 12.4 NW 2 5 1021.9 - 0.0 - Cloudy 10 - - - -
22/03:30am 12.1 CALM 0 0 1021.9 - 0.0 - Cloudy 10 - - - -
22/03:00am 11.7 NNW 3 4 1021.8 R 0.0 - Cloudy 10 - - - -
22/02:30am 11.8 N 3 3 1021.8 - 0.0 - Cloudy 10 - - - -
22/02:00am 12.2 CALM 0 0 1022.0 - 0.0 - Cloudy 10 - - - -
22/01:30am 12.3 NW 3 4 1022.0 - 0.0 - Cloudy 10 - - - -
22/01:00am 12.7 WNW 3 6 1022.0 - 0.0 - Cloudy 10 - - - -
22/12:30am 12.8 SSE 2 3 1022.0 - 0.0 - Cloudy 10 - - - -
22/12:00am 13.1 SW 3 4 1022.0 S 0.0 - Cloudy 10 - - - -
 
Date/Time
CST
Temp
°C
Wind Pressure Rain since
9am
mm
Weather Cloud Vis
km
Sea
Height
m
Swell
Dir  Spd
kts
Gust
kts
hPa Trend Height
m
Period
s
Dir
21/11:30pm 13.8 SSW 6 8 1022.0 - 0.0 - Cloudy 10 - - - -
21/11:00pm 13.4 SSW 5 7 1022.0 - 0.0 - Cloudy 10 - - - -
21/10:30pm 12.6 S 5 8 1022.0 - 0.0 - Cloudy 10 - - - -
21/10:00pm 12.1 S 5 6 1022.2 - 0.0 - Partly cloudy 10 - - - -
21/09:30pm 12.4 SSW 3 4 1022.3 - 0.0 - Cloudy 10 - - - -
21/09:00pm 12.0 SSW 4 5 1022.1 R 0.0 - Mostly cloudy 10 - - - -
21/08:30pm 11.6 SSW 6 7 1021.8 - 0.0 - - 10 - - - -
21/08:00pm 12.9 SSW 8 10 1021.4 - 0.0 - Partly cloudy 10 - - - -
21/07:30pm 14.0 SSW 8 11 1020.9 - 0.0 - Cloudy 10 - - - -
21/07:00pm 13.9 SSW 8 10 1020.6 - 0.0 - Cloudy 10 - - - -
21/06:30pm 14.1 SW 10 13 1020.3 - 0.0 - Cloudy 10 - - - -
21/06:00pm 14.3 SW 11 13 1020.2 R 0.0 - Partly cloudy 10 - - - -
21/05:30pm 14.5 SW 12 17 1019.9 - 0.0 - Partly cloudy 10 - - - -
21/05:00pm 14.8 SW 13 17 1019.8 - 0.0 - Cloudy 10 - - - -
21/04:30pm 14.5 WSW 13 17 1019.6 - 0.0 - Partly cloudy 10 - - - -
21/04:00pm 14.9 WSW 14 19 1019.4 - 0.0 - Partly cloudy 10 - - - -
21/03:30pm 15.5 SW 14 19 1019.0 - 0.0 - Cloudy 10 - - - -
21/03:00pm 15.9 SW 16 21 1018.7 R 0.0 - Cloudy 10 - - - -
21/02:30pm 16.2 SW 15 19 1018.5 - 0.0 - Partly cloudy 10 - - - -
21/02:00pm 16.3 SW 16 21 1018.2 - 0.0 - Partly cloudy 10 - - - -
21/01:30pm 16.1 SW 18 24 1018.1 - 0.0 - Partly cloudy 10 - - - -
21/01:00pm 15.6 WSW 17 23 1018.3 - 0.0 - Partly cloudy 10 - - - -
21/12:30pm 16.1 WSW 17 22 1018.3 - 0.0 - Cloudy 10 - - - -
21/12:00pm 15.6 WSW 17 23 1018.1 R 0.0 - Cloudy 10 - - - -
21/11:30am 14.2 SW 19 26 1018.1 - 0.0 - Partly cloudy 10 - - - -
21/11:00am 15.3 SW 18 23 1017.7 - 0.0 - Partly cloudy 10 - - - -
21/10:30am 15.4 SW 17 23 1017.3 - 0.0 - Partly cloudy 10 - - - -
21/10:00am 14.7 SW 19 25 1016.9 - 0.0 - Cloudy 10 - - - -
21/09:30am 14.5 WSW 17 22 1016.6 - 0.0 - Cloudy 10 - - - -
21/09:00am 14.1 WSW 17 24 1015.9 R 2.4 - Cloudy 10 - - - -
21/08:30am 13.8 SW 16 21 1015.5 - 2.4 - Partly cloudy 10 - - - -
21/08:20am 13.9 SW 18 28 1015.2 - 2.4 - Partly cloudy 10 - - - -
21/08:00am 13.1 WSW 18 26 1014.8 - 2.4 - Partly cloudy 10 - - - -
21/07:40am 12.9 WSW 17 27 1014.6 - 2.2 - Partly cloudy 10 - - - -
21/07:30am 12.6 SW 18 27 1014.4 - 2.2 - Partly cloudy 10 - - - -
21/07:10am 13.3 WSW 19 30 1013.9 - 2.2 - Partly cloudy 10 - - - -
21/07:00am 13.8 WSW 17 24 1013.7 - 2.2 - Partly cloudy 10 - - - -
21/06:34am 13.4 WSW 17 27 1013.2 - 2.2 - Partly cloudy 10 - - - -
21/06:30am 13.3 WSW 20 28 1013.1 - 2.2 - Partly cloudy 10 - - - -
21/06:01am 13.0 SW 18 32 1012.7 - 2.2 - Partly cloudy 10 - - - -
21/06:00am 13.3 SW 17 24 1012.7 R 2.2 - Mostly cloudy 10 - - - -
21/05:30am 13.8 WSW 19 27 1012.1 - 2.2 - Partly cloudy 10 - - - -
21/05:06am 13.9 WSW 18 29 1011.8 - 2.2 - Partly cloudy 10 - - - -
21/05:00am 13.8 WSW 16 22 1011.6 - 2.2 - Partly cloudy 10 - - - -
21/04:30am 13.8 WSW 18 25 1011.4 - 2.2 - Partly cloudy 10 - - - -
21/04:03am 13.8 WSW 17 27 1011.2 - 2.2 - Partly cloudy 10 - - - -
21/04:00am 13.8 WSW 18 27 1011.1 - 2.2 - Partly cloudy 10 - - - -
21/03:40am 13.7 W 18 28 1011.0 - 2.2 - Partly cloudy 10 - - - -
21/03:30am 13.8 WSW 18 24 1011.0 - 2.2 - Partly cloudy 10 - - - -
21/03:05am 13.1 W 15 25 1010.9 - 2.2 - Partly cloudy 10 - - - -

Other Formats:

Comma delimited format used in spreadsheet applications
http://www.bom.gov.au/fwo/IDS60701/IDS60701.94653.axf

JavaScript Object Notation format (JSON) in row-major order
http://www.bom.gov.au/fwo/IDS60701/IDS60701.94653.json